sensor_id;sensor_type;location;lat;lon;timestamp;temperature;humidity
1179;DHT22;578;48.408;10.004;2022-11-30T00:02:05;5.00;99.90
1179;DHT22;578;48.408;10.004;2022-11-30T00:04:38;5.10;99.90
1179;DHT22;578;48.408;10.004;2022-11-30T00:07:17;5.10;99.90
1179;DHT22;578;48.408;10.004;2022-11-30T00:09:52;5.10;99.90
1179;DHT22;578;48.408;10.004;2022-11-30T00:12:30;5.10;99.90
1179;DHT22;578;48.408;10.004;2022-11-30T00:15:03;5.00;99.90
1179;DHT22;578;48.408;10.004;2022-11-30T00:20:23;5.10;99.90
1179;DHT22;578;48.408;10.004;2022-11-30T00:23:03;5.10;99.90
1179;DHT22;578;48.408;10.004;2022-11-30T00:25:36;5.10;99.90
1179;DHT22;578;48.408;10.004;2022-11-30T00:28:35;5.00;99.90
1179;DHT22;578;48.408;10.004;2022-11-30T00:31:30;5.00;99.90
1179;DHT22;578;48.408;10.004;2022-11-30T00:34:04;4.90;99.90
1179;DHT22;578;48.408;10.004;2022-11-30T00:36:34;4.90;99.90
1179;DHT22;578;48.408;10.004;2022-11-30T00:39:13;4.80;99.90
1179;DHT22;578;48.408;10.004;2022-11-30T00:41:52;4.90;99.90
1179;DHT22;578;48.408;10.004;2022-11-30T00:44:25;4.80;99.90
1179;DHT22;578;48.408;10.004;2022-11-30T00:47:06;4.80;99.90
1179;DHT22;578;48.408;10.004;2022-11-30T00:52:42;4.80;99.90
1179;DHT22;578;48.408;10.004;2022-11-30T00:55:11;4.80;99.90
1179;DHT22;578;48.408;10.004;2022-11-30T00:57:44;4.70;99.90
1179;DHT22;578;48.408;10.004;2022-11-30T01:00:28;4.80;99.90
1179;DHT22;578;48.408;10.004;2022-11-30T01:03:06;4.80;99.90
1179;DHT22;578;48.408;10.004;2022-11-30T01:05:33;4.70;99.90
1179;DHT22;578;48.408;10.004;2022-11-30T01:08:10;4.70;99.90
1179;DHT22;578;48.408;10.004;2022-11-30T01:11:04;4.80;99.90
1179;DHT22;578;48.408;10.004;2022-11-30T01:13:40;4.70;99.90
1179;DHT22;578;48.408;10.004;2022-11-30T01:16:38;4.70;99.90
1179;DHT22;578;48.408;10.004;2022-11-30T01:19:20;4.70;99.90
1179;DHT22;578;48.408;10.004;2022-11-30T01:21:54;4.70;99.90
1179;DHT22;578;48.408;10.004;2022-11-30T01:24:33;4.70;99.90
1179;DHT22;578;48.408;10.004;2022-11-30T01:27:05;4.70;99.90
1179;DHT22;578;48.408;10.004;2022-11-30T01:29:37;4.70;99.90
1179;DHT22;578;48.408;10.004;2022-11-30T01:32:06;4.70;99.90
1179;DHT22;578;48.408;10.004;2022-11-30T01:34:38;4.70;99.90
1179;DHT22;578;48.408;10.004;2022-11-30T01:37:06;4.70;99.90
1179;DHT22;578;48.408;10.004;2022-11-30T01:39:46;4.70;99.90
1179;DHT22;578;48.408;10.004;2022-11-30T01:42:23;4.70;99.90
1179;DHT22;578;48.408;10.004;2022-11-30T01:44:57;4.70;99.90
1179;DHT22;578;48.408;10.004;2022-11-30T01:47:30;4.70;99.90
1179;DHT22;578;48.408;10.004;2022-11-30T01:50:16;4.60;99.90
1179;DHT22;578;48.408;10.004;2022-11-30T01:52:52;4.60;99.90
1179;DHT22;578;48.408;10.004;2022-11-30T01:55:27;4.70;99.90
1179;DHT22;578;48.408;10.004;2022-11-30T01:58:00;4.60;99.90
1179;DHT22;578;48.408;10.004;2022-11-30T02:00:46;4.70;99.90
1179;DHT22;578;48.408;10.004;2022-11-30T02:03:25;4.70;99.90
1179;DHT22;578;48.408;10.004;2022-11-30T02:05:59;4.60;99.90
1179;DHT22;578;48.408;10.004;2022-11-30T02:08:30;4.50;99.90
1179;DHT22;578;48.408;10.004;2022-11-30T02:11:05;4.40;99.90
1179;DHT22;578;48.408;10.004;2022-11-30T02:13:54;4.50;99.90
1179;DHT22;578;48.408;10.004;2022-11-30T02:16:28;4.40;99.90
1179;DHT22;578;48.408;10.004;2022-11-30T02:19:16;4.40;99.90
1179;DHT22;578;48.408;10.004;2022-11-30T02:21:51;4.40;99.90
1179;DHT22;578;48.408;10.004;2022-11-30T02:24:46;4.40;99.90
1179;DHT22;578;48.408;10.004;2022-11-30T02:27:29;4.40;99.90
1179;DHT22;578;48.408;10.004;2022-11-30T02:30:04;4.30;99.90
1179;DHT22;578;48.408;10.004;2022-11-30T02:32:37;4.20;99.90
1179;DHT22;578;48.408;10.004;2022-11-30T02:35:07;4.30;99.90
1179;DHT22;578;48.408;10.004;2022-11-30T02:37:35;4.30;99.90
1179;DHT22;578;48.408;10.004;2022-11-30T02:40:07;4.30;99.90
1179;DHT22;578;48.408;10.004;2022-11-30T02:42:34;4.30;99.90
1179;DHT22;578;48.408;10.004;2022-11-30T02:45:02;4.20;99.90
1179;DHT22;578;48.408;10.004;2022-11-30T02:47:33;4.10;99.90
1179;DHT22;578;48.408;10.004;2022-11-30T02:50:07;4.20;99.90
1179;DHT22;578;48.408;10.004;2022-11-30T02:52:36;4.20;99.90
1179;DHT22;578;48.408;10.004;2022-11-30T02:55:05;4.20;99.90
1179;DHT22;578;48.408;10.004;2022-11-30T02:57:32;4.10;99.90
1179;DHT22;578;48.408;10.004;2022-11-30T03:00:03;4.20;99.90
1179;DHT22;578;48.408;10.004;2022-11-30T03:02:31;4.20;99.90
1179;DHT22;578;48.408;10.004;2022-11-30T03:04:58;4.20;99.90
1179;DHT22;578;48.408;10.004;2022-11-30T03:07:24;4.20;99.90
1179;DHT22;578;48.408;10.004;2022-11-30T03:09:51;4.20;99.90
1179;DHT22;578;48.408;10.004;2022-11-30T03:12:18;4.20;99.90
1179;DHT22;578;48.408;10.004;2022-11-30T03:14:45;4.10;99.90
1179;DHT22;578;48.408;10.004;2022-11-30T03:17:13;4.10;99.90
1179;DHT22;578;48.408;10.004;2022-11-30T03:19:40;4.20;99.90
1179;DHT22;578;48.408;10.004;2022-11-30T03:22:07;4.10;99.90
1179;DHT22;578;48.408;10.004;2022-11-30T03:24:33;4.10;99.90
1179;DHT22;578;48.408;10.004;2022-11-30T03:27:01;4.10;99.90
1179;DHT22;578;48.408;10.004;2022-11-30T03:29:28;4.20;99.90
1179;DHT22;578;48.408;10.004;2022-11-30T03:31:55;4.10;99.90
1179;DHT22;578;48.408;10.004;2022-11-30T03:34:23;4.10;99.90
1179;DHT22;578;48.408;10.004;2022-11-30T03:36:51;4.10;99.90
1179;DHT22;578;48.408;10.004;2022-11-30T03:39:18;4.10;99.90
1179;DHT22;578;48.408;10.004;2022-11-30T03:41:45;4.10;99.90
1179;DHT22;578;48.408;10.004;2022-11-30T03:44:11;4.10;99.90
1179;DHT22;578;48.408;10.004;2022-11-30T03:46:38;4.10;99.90
1179;DHT22;578;48.408;10.004;2022-11-30T03:49:05;4.00;99.90
1179;DHT22;578;48.408;10.004;2022-11-30T03:51:33;4.10;99.90
1179;DHT22;578;48.408;10.004;2022-11-30T03:54:00;4.00;99.90
1179;DHT22;578;48.408;10.004;2022-11-30T03:56:27;4.10;99.90
1179;DHT22;578;48.408;10.004;2022-11-30T03:58:54;4.10;99.90
1179;DHT22;578;48.408;10.004;2022-11-30T04:01:21;4.10;99.90
1179;DHT22;578;48.408;10.004;2022-11-30T04:03:49;4.00;99.90
1179;DHT22;578;48.408;10.004;2022-11-30T04:06:16;4.00;99.90
1179;DHT22;578;48.408;10.004;2022-11-30T04:08:44;4.00;99.90
1179;DHT22;578;48.408;10.004;2022-11-30T04:11:11;4.00;99.90
1179;DHT22;578;48.408;10.004;2022-11-30T04:13:39;4.00;99.90
1179;DHT22;578;48.408;10.004;2022-11-30T04:16:06;4.00;99.90
1179;DHT22;578;48.408;10.004;2022-11-30T04:18:35;4.10;99.90
1179;DHT22;578;48.408;10.004;2022-11-30T04:21:03;4.20;99.90
1179;DHT22;578;48.408;10.004;2022-11-30T04:23:32;4.10;99.90
1179;DHT22;578;48.408;10.004;2022-11-30T04:26:01;4.10;99.90
1179;DHT22;578;48.408;10.004;2022-11-30T04:28:28;4.10;99.90
1179;DHT22;578;48.408;10.004;2022-11-30T04:30:55;4.10;99.90
1179;DHT22;578;48.408;10.004;2022-11-30T04:33:22;4.10;99.90
1179;DHT22;578;48.408;10.004;2022-11-30T04:35:51;4.10;99.90
1179;DHT22;578;48.408;10.004;2022-11-30T04:38:19;4.00;99.90
1179;DHT22;578;48.408;10.004;2022-11-30T04:40:46;4.10;99.90
1179;DHT22;578;48.408;10.004;2022-11-30T04:43:14;4.00;99.90
1179;DHT22;578;48.408;10.004;2022-11-30T04:45:41;4.00;99.90
1179;DHT22;578;48.408;10.004;2022-11-30T04:48:08;4.10;99.90
1179;DHT22;578;48.408;10.004;2022-11-30T04:50:35;4.00;99.90
1179;DHT22;578;48.408;10.004;2022-11-30T04:53:02;4.00;99.90
1179;DHT22;578;48.408;10.004;2022-11-30T04:55:29;4.00;99.90
1179;DHT22;578;48.408;10.004;2022-11-30T04:57:56;4.00;99.90
1179;DHT22;578;48.408;10.004;2022-11-30T05:00:24;4.00;99.90
1179;DHT22;578;48.408;10.004;2022-11-30T05:02:51;4.00;99.90
1179;DHT22;578;48.408;10.004;2022-11-30T05:05:18;4.00;99.90
1179;DHT22;578;48.408;10.004;2022-11-30T05:07:48;3.90;99.90
1179;DHT22;578;48.408;10.004;2022-11-30T05:10:17;4.00;99.90
1179;DHT22;578;48.408;10.004;2022-11-30T05:12:44;3.90;99.90
1179;DHT22;578;48.408;10.004;2022-11-30T05:15:11;3.90;99.90
1179;DHT22;578;48.408;10.004;2022-11-30T05:17:39;3.90;99.90
1179;DHT22;578;48.408;10.004;2022-11-30T05:20:06;3.90;99.90
1179;DHT22;578;48.408;10.004;2022-11-30T05:22:33;4.00;99.90
1179;DHT22;578;48.408;10.004;2022-11-30T05:25:01;3.90;99.90
1179;DHT22;578;48.408;10.004;2022-11-30T05:27:27;3.90;99.90
1179;DHT22;578;48.408;10.004;2022-11-30T05:29:54;3.90;99.90
1179;DHT22;578;48.408;10.004;2022-11-30T05:32:21;4.00;99.90
1179;DHT22;578;48.408;10.004;2022-11-30T05:34:49;4.00;99.90
1179;DHT22;578;48.408;10.004;2022-11-30T05:37:15;3.90;99.90
1179;DHT22;578;48.408;10.004;2022-11-30T05:39:42;4.00;99.90
1179;DHT22;578;48.408;10.004;2022-11-30T05:42:09;4.00;99.90
1179;DHT22;578;48.408;10.004;2022-11-30T05:44:36;4.00;99.90
1179;DHT22;578;48.408;10.004;2022-11-30T05:47:02;4.00;99.90
1179;DHT22;578;48.408;10.004;2022-11-30T05:49:29;4.00;99.90
1179;DHT22;578;48.408;10.004;2022-11-30T05:51:57;4.00;99.90
1179;DHT22;578;48.408;10.004;2022-11-30T05:54:24;4.00;99.90
1179;DHT22;578;48.408;10.004;2022-11-30T05:56:50;3.90;99.90
1179;DHT22;578;48.408;10.004;2022-11-30T05:59:17;4.00;99.90
1179;DHT22;578;48.408;10.004;2022-11-30T06:01:44;4.00;99.90
1179;DHT22;578;48.408;10.004;2022-11-30T06:04:11;4.00;99.90
1179;DHT22;578;48.408;10.004;2022-11-30T06:06:37;4.00;99.90
1179;DHT22;578;48.408;10.004;2022-11-30T06:09:05;4.00;99.90
1179;DHT22;578;48.408;10.004;2022-11-30T06:11:32;4.00;99.90
1179;DHT22;578;48.408;10.004;2022-11-30T06:13:59;4.00;99.90
1179;DHT22;578;48.408;10.004;2022-11-30T06:16:26;3.90;99.90
1179;DHT22;578;48.408;10.004;2022-11-30T06:18:52;3.90;99.90
1179;DHT22;578;48.408;10.004;2022-11-30T06:21:19;3.90;99.90
1179;DHT22;578;48.408;10.004;2022-11-30T06:23:46;3.90;99.90
1179;DHT22;578;48.408;10.004;2022-11-30T06:26:14;3.90;99.90
1179;DHT22;578;48.408;10.004;2022-11-30T06:28:40;3.90;99.90
1179;DHT22;578;48.408;10.004;2022-11-30T06:31:07;3.90;99.90
1179;DHT22;578;48.408;10.004;2022-11-30T06:33:35;4.00;99.90
1179;DHT22;578;48.408;10.004;2022-11-30T06:36:03;3.90;99.90
1179;DHT22;578;48.408;10.004;2022-11-30T06:38:30;4.00;99.90
1179;DHT22;578;48.408;10.004;2022-11-30T06:41:02;3.90;99.90
1179;DHT22;578;48.408;10.004;2022-11-30T06:43:33;3.80;99.90
1179;DHT22;578;48.408;10.004;2022-11-30T06:46:00;3.90;99.90
1179;DHT22;578;48.408;10.004;2022-11-30T06:48:28;3.90;99.90
1179;DHT22;578;48.408;10.004;2022-11-30T06:50:54;3.80;99.90
1179;DHT22;578;48.408;10.004;2022-11-30T06:53:21;3.70;99.90
1179;DHT22;578;48.408;10.004;2022-11-30T06:55:48;3.70;99.90
1179;DHT22;578;48.408;10.004;2022-11-30T06:58:14;3.70;99.90
1179;DHT22;578;48.408;10.004;2022-11-30T07:00:43;3.80;99.90
1179;DHT22;578;48.408;10.004;2022-11-30T07:03:10;3.70;99.90
1179;DHT22;578;48.408;10.004;2022-11-30T07:05:41;3.70;99.90
1179;DHT22;578;48.408;10.004;2022-11-30T07:08:08;3.70;99.90
1179;DHT22;578;48.408;10.004;2022-11-30T07:10:38;3.70;99.90
1179;DHT22;578;48.408;10.004;2022-11-30T07:13:05;3.80;99.90
1179;DHT22;578;48.408;10.004;2022-11-30T07:15:34;3.70;99.90
1179;DHT22;578;48.408;10.004;2022-11-30T07:18:03;3.70;99.90
1179;DHT22;578;48.408;10.004;2022-11-30T07:20:29;3.80;99.90
1179;DHT22;578;48.408;10.004;2022-11-30T07:22:56;3.80;99.90
1179;DHT22;578;48.408;10.004;2022-11-30T07:25:43;3.70;99.90
1179;DHT22;578;48.408;10.004;2022-11-30T07:28:27;3.70;99.90
1179;DHT22;578;48.408;10.004;2022-11-30T07:30:54;3.80;99.90
1179;DHT22;578;48.408;10.004;2022-11-30T07:33:22;3.80;99.90
1179;DHT22;578;48.408;10.004;2022-11-30T07:35:49;3.80;99.90
1179;DHT22;578;48.408;10.004;2022-11-30T07:38:18;3.70;99.90
1179;DHT22;578;48.408;10.004;2022-11-30T07:40:45;3.60;99.90
1179;DHT22;578;48.408;10.004;2022-11-30T07:43:11;3.80;99.90
1179;DHT22;578;48.408;10.004;2022-11-30T07:45:38;3.70;99.90
1179;DHT22;578;48.408;10.004;2022-11-30T07:48:05;3.80;99.90
1179;DHT22;578;48.408;10.004;2022-11-30T07:50:35;3.70;99.90
1179;DHT22;578;48.408;10.004;2022-11-30T07:53:02;3.80;99.90
1179;DHT22;578;48.408;10.004;2022-11-30T07:55:29;3.80;99.90
1179;DHT22;578;48.408;10.004;2022-11-30T07:57:56;3.90;99.90
1179;DHT22;578;48.408;10.004;2022-11-30T08:00:23;3.90;99.90
1179;DHT22;578;48.408;10.004;2022-11-30T08:02:49;3.70;99.90
1179;DHT22;578;48.408;10.004;2022-11-30T08:05:16;3.70;99.90
1179;DHT22;578;48.408;10.004;2022-11-30T08:07:44;3.70;99.90
1179;DHT22;578;48.408;10.004;2022-11-30T08:10:15;3.70;99.90
1179;DHT22;578;48.408;10.004;2022-11-30T08:12:42;3.70;99.90
1179;DHT22;578;48.408;10.004;2022-11-30T08:15:09;3.80;99.90
1179;DHT22;578;48.408;10.004;2022-11-30T08:17:36;3.90;99.90
1179;DHT22;578;48.408;10.004;2022-11-30T08:20:04;3.80;99.90
1179;DHT22;578;48.408;10.004;2022-11-30T08:22:32;3.80;99.90
1179;DHT22;578;48.408;10.004;2022-11-30T08:25:00;3.80;99.90
1179;DHT22;578;48.408;10.004;2022-11-30T08:27:27;3.80;99.90
1179;DHT22;578;48.408;10.004;2022-11-30T08:29:54;3.70;99.90
1179;DHT22;578;48.408;10.004;2022-11-30T08:32:20;3.80;99.90
1179;DHT22;578;48.408;10.004;2022-11-30T08:34:47;3.80;99.90
1179;DHT22;578;48.408;10.004;2022-11-30T08:37:14;3.90;99.90
1179;DHT22;578;48.408;10.004;2022-11-30T08:39:40;3.70;99.90
1179;DHT22;578;48.408;10.004;2022-11-30T08:42:08;3.90;99.90
1179;DHT22;578;48.408;10.004;2022-11-30T08:44:35;3.90;99.90
1179;DHT22;578;48.408;10.004;2022-11-30T08:47:02;3.90;99.90
1179;DHT22;578;48.408;10.004;2022-11-30T08:49:30;3.90;99.90
1179;DHT22;578;48.408;10.004;2022-11-30T08:51:57;3.90;99.90
1179;DHT22;578;48.408;10.004;2022-11-30T08:54:23;4.00;99.90
1179;DHT22;578;48.408;10.004;2022-11-30T08:56:51;4.00;99.90
1179;DHT22;578;48.408;10.004;2022-11-30T08:59:19;4.00;99.90
1179;DHT22;578;48.408;10.004;2022-11-30T09:01:46;4.10;99.90
1179;DHT22;578;48.408;10.004;2022-11-30T09:04:13;4.10;99.90
1179;DHT22;578;48.408;10.004;2022-11-30T09:06:40;4.00;99.90
1179;DHT22;578;48.408;10.004;2022-11-30T09:09:07;4.00;99.90
1179;DHT22;578;48.408;10.004;2022-11-30T09:11:34;4.00;99.90
1179;DHT22;578;48.408;10.004;2022-11-30T09:14:01;3.90;99.90
1179;DHT22;578;48.408;10.004;2022-11-30T09:16:31;4.00;99.90
1179;DHT22;578;48.408;10.004;2022-11-30T09:18:58;4.10;99.90
1179;DHT22;578;48.408;10.004;2022-11-30T09:21:25;4.20;99.90
1179;DHT22;578;48.408;10.004;2022-11-30T09:23:54;4.00;99.90
1179;DHT22;578;48.408;10.004;2022-11-30T09:26:21;4.10;99.90
1179;DHT22;578;48.408;10.004;2022-11-30T09:28:50;4.20;99.90
1179;DHT22;578;48.408;10.004;2022-11-30T09:31:19;4.10;99.90
1179;DHT22;578;48.408;10.004;2022-11-30T09:33:48;4.10;99.90
1179;DHT22;578;48.408;10.004;2022-11-30T09:36:16;4.30;99.90
1179;DHT22;578;48.408;10.004;2022-11-30T09:38:44;4.30;99.90
1179;DHT22;578;48.408;10.004;2022-11-30T09:41:24;4.30;99.90
1179;DHT22;578;48.408;10.004;2022-11-30T09:44:02;4.30;99.90
1179;DHT22;578;48.408;10.004;2022-11-30T09:46:35;4.10;99.90
1179;DHT22;578;48.408;10.004;2022-11-30T09:49:08;4.30;99.90
1179;DHT22;578;48.408;10.004;2022-11-30T09:51:43;4.30;99.90
1179;DHT22;578;48.408;10.004;2022-11-30T09:54:14;4.30;99.90
1179;DHT22;578;48.408;10.004;2022-11-30T09:56:43;4.20;99.90
1179;DHT22;578;48.408;10.004;2022-11-30T09:59:17;4.40;99.90
1179;DHT22;578;48.408;10.004;2022-11-30T10:01:44;4.40;99.90
1179;DHT22;578;48.408;10.004;2022-11-30T10:04:20;4.30;99.90
1179;DHT22;578;48.408;10.004;2022-11-30T10:06:55;4.50;99.90
1179;DHT22;578;48.408;10.004;2022-11-30T10:09:37;4.60;99.90
1179;DHT22;578;48.408;10.004;2022-11-30T10:12:13;4.50;99.90
1179;DHT22;578;48.408;10.004;2022-11-30T10:15:06;4.50;99.90
1179;DHT22;578;48.408;10.004;2022-11-30T10:17:48;4.50;99.90
1179;DHT22;578;48.408;10.004;2022-11-30T10:20:36;4.60;99.90
1179;DHT22;578;48.408;10.004;2022-11-30T10:23:16;4.70;99.90
1179;DHT22;578;48.408;10.004;2022-11-30T10:25:51;4.60;99.90
1179;DHT22;578;48.408;10.004;2022-11-30T10:28:26;4.50;99.90
1179;DHT22;578;48.408;10.004;2022-11-30T10:30:55;4.40;99.90
1179;DHT22;578;48.408;10.004;2022-11-30T10:33:26;4.40;99.90
1179;DHT22;578;48.408;10.004;2022-11-30T10:36:02;4.50;99.90
1179;DHT22;578;48.408;10.004;2022-11-30T10:38:33;4.60;99.90
1179;DHT22;578;48.408;10.004;2022-11-30T10:41:07;4.50;99.90
1179;DHT22;578;48.408;10.004;2022-11-30T10:43:39;4.30;99.90
1179;DHT22;578;48.408;10.004;2022-11-30T10:46:17;4.40;99.90
1179;DHT22;578;48.408;10.004;2022-11-30T10:48:48;4.50;99.90
1179;DHT22;578;48.408;10.004;2022-11-30T10:51:18;4.50;99.90
1179;DHT22;578;48.408;10.004;2022-11-30T10:53:45;4.50;99.90
1179;DHT22;578;48.408;10.004;2022-11-30T10:56:13;4.60;99.90
1179;DHT22;578;48.408;10.004;2022-11-30T10:58:47;4.40;99.90
1179;DHT22;578;48.408;10.004;2022-11-30T11:01:30;4.50;99.90
1179;DHT22;578;48.408;10.004;2022-11-30T11:04:11;4.50;99.90
1179;DHT22;578;48.408;10.004;2022-11-30T11:06:42;4.50;99.90
1179;DHT22;578;48.408;10.004;2022-11-30T11:09:31;4.70;99.90
1179;DHT22;578;48.408;10.004;2022-11-30T11:12:00;4.60;99.90
1179;DHT22;578;48.408;10.004;2022-11-30T11:14:27;4.40;99.90
1179;DHT22;578;48.408;10.004;2022-11-30T11:16:56;4.60;99.90
1179;DHT22;578;48.408;10.004;2022-11-30T11:19:36;4.50;99.90
1179;DHT22;578;48.408;10.004;2022-11-30T11:22:06;4.50;99.90
1179;DHT22;578;48.408;10.004;2022-11-30T11:24:33;4.40;99.90
1179;DHT22;578;48.408;10.004;2022-11-30T11:27:01;4.50;99.90
1179;DHT22;578;48.408;10.004;2022-11-30T11:29:30;4.70;99.90
1179;DHT22;578;48.408;10.004;2022-11-30T11:32:19;4.70;99.90
1179;DHT22;578;48.408;10.004;2022-11-30T11:34:47;4.70;99.90
1179;DHT22;578;48.408;10.004;2022-11-30T11:37:19;4.80;99.90
1179;DHT22;578;48.408;10.004;2022-11-30T11:40:08;4.70;99.90
1179;DHT22;578;48.408;10.004;2022-11-30T11:42:41;4.70;99.90
1179;DHT22;578;48.408;10.004;2022-11-30T11:45:16;4.70;99.90
1179;DHT22;578;48.408;10.004;2022-11-30T11:47:44;4.60;99.90
1179;DHT22;578;48.408;10.004;2022-11-30T11:50:23;4.50;99.90
1179;DHT22;578;48.408;10.004;2022-11-30T11:53:12;4.40;99.90
1179;DHT22;578;48.408;10.004;2022-11-30T11:55:49;4.50;99.90
1179;DHT22;578;48.408;10.004;2022-11-30T11:58:20;4.30;99.90
1179;DHT22;578;48.408;10.004;2022-11-30T12:00:47;4.30;99.90
1179;DHT22;578;48.408;10.004;2022-11-30T12:03:22;4.40;99.90
1179;DHT22;578;48.408;10.004;2022-11-30T12:05:56;4.30;99.90
1179;DHT22;578;48.408;10.004;2022-11-30T12:08:33;4.30;99.90
1179;DHT22;578;48.408;10.004;2022-11-30T12:11:02;4.30;99.90
1179;DHT22;578;48.408;10.004;2022-11-30T12:13:32;4.40;99.90
1179;DHT22;578;48.408;10.004;2022-11-30T12:16:06;4.40;99.90
1179;DHT22;578;48.408;10.004;2022-11-30T12:18:44;4.30;99.90
1179;DHT22;578;48.408;10.004;2022-11-30T12:21:22;4.30;99.90
1179;DHT22;578;48.408;10.004;2022-11-30T12:24:07;4.40;99.90
1179;DHT22;578;48.408;10.004;2022-11-30T12:26:44;4.30;99.90
1179;DHT22;578;48.408;10.004;2022-11-30T12:29:20;4.50;99.90
1179;DHT22;578;48.408;10.004;2022-11-30T12:31:58;4.40;99.90
1179;DHT22;578;48.408;10.004;2022-11-30T12:34:37;4.40;99.90
1179;DHT22;578;48.408;10.004;2022-11-30T12:37:11;4.30;99.90
1179;DHT22;578;48.408;10.004;2022-11-30T12:39:46;4.30;99.90
1179;DHT22;578;48.408;10.004;2022-11-30T12:42:19;4.30;99.90
1179;DHT22;578;48.408;10.004;2022-11-30T12:44:53;4.40;99.90
1179;DHT22;578;48.408;10.004;2022-11-30T12:47:35;4.30;99.90
1179;DHT22;578;48.408;10.004;2022-11-30T12:50:16;4.40;99.90
1179;DHT22;578;48.408;10.004;2022-11-30T12:52:50;4.30;99.90
1179;DHT22;578;48.408;10.004;2022-11-30T12:55:27;4.40;99.90
1179;DHT22;578;48.408;10.004;2022-11-30T12:58:00;4.30;99.90
1179;DHT22;578;48.408;10.004;2022-11-30T13:00:37;4.40;99.90
1179;DHT22;578;48.408;10.004;2022-11-30T13:03:24;4.50;99.90
1179;DHT22;578;48.408;10.004;2022-11-30T13:05:58;4.50;99.90
1179;DHT22;578;48.408;10.004;2022-11-30T13:08:29;4.40;99.90
1179;DHT22;578;48.408;10.004;2022-11-30T13:11:01;4.60;99.90
1179;DHT22;578;48.408;10.004;2022-11-30T13:13:33;4.50;99.90
1179;DHT22;578;48.408;10.004;2022-11-30T13:16:03;4.60;99.90
1179;DHT22;578;48.408;10.004;2022-11-30T13:18:31;4.50;99.90
1179;DHT22;578;48.408;10.004;2022-11-30T13:21:03;4.60;99.90
1179;DHT22;578;48.408;10.004;2022-11-30T13:23:33;4.50;99.90
1179;DHT22;578;48.408;10.004;2022-11-30T13:26:07;4.60;99.90
1179;DHT22;578;48.408;10.004;2022-11-30T13:28:51;4.50;99.90
1179;DHT22;578;48.408;10.004;2022-11-30T13:31:24;4.40;99.90
1179;DHT22;578;48.408;10.004;2022-11-30T13:33:58;4.50;99.90
1179;DHT22;578;48.408;10.004;2022-11-30T13:36:32;4.50;99.90
1179;DHT22;578;48.408;10.004;2022-11-30T13:39:26;4.50;99.90
1179;DHT22;578;48.408;10.004;2022-11-30T13:42:35;4.50;99.90
1179;DHT22;578;48.408;10.004;2022-11-30T13:45:28;4.50;99.90
1179;DHT22;578;48.408;10.004;2022-11-30T13:47:57;4.60;99.90
1179;DHT22;578;48.408;10.004;2022-11-30T13:50:31;4.60;99.90
1179;DHT22;578;48.408;10.004;2022-11-30T13:53:20;4.50;99.90
1179;DHT22;578;48.408;10.004;2022-11-30T14:01:42;4.60;99.90
1179;DHT22;578;48.408;10.004;2022-11-30T14:04:42;4.50;99.90
1179;DHT22;578;48.408;10.004;2022-11-30T14:07:32;4.50;99.90
1179;DHT22;578;48.408;10.004;2022-11-30T14:09:59;4.50;99.90
1179;DHT22;578;48.408;10.004;2022-11-30T14:15:53;4.50;99.90
1179;DHT22;578;48.408;10.004;2022-11-30T14:18:39;4.50;99.90
1179;DHT22;578;48.408;10.004;2022-11-30T14:21:14;4.40;99.90
1179;DHT22;578;48.408;10.004;2022-11-30T14:23:47;4.40;99.90
1179;DHT22;578;48.408;10.004;2022-11-30T14:26:20;4.50;99.90
1179;DHT22;578;48.408;10.004;2022-11-30T14:28:51;4.50;99.90
1179;DHT22;578;48.408;10.004;2022-11-30T14:31:24;4.50;99.90
1179;DHT22;578;48.408;10.004;2022-11-30T14:33:54;4.40;99.90
1179;DHT22;578;48.408;10.004;2022-11-30T14:36:23;4.40;99.90
1179;DHT22;578;48.408;10.004;2022-11-30T14:38:52;4.40;99.90
1179;DHT22;578;48.408;10.004;2022-11-30T14:41:21;4.40;99.90
1179;DHT22;578;48.408;10.004;2022-11-30T14:44:04;4.40;99.90
1179;DHT22;578;48.408;10.004;2022-11-30T14:46:32;4.40;99.90
1179;DHT22;578;48.408;10.004;2022-11-30T14:49:04;4.40;99.90
1179;DHT22;578;48.408;10.004;2022-11-30T14:51:32;4.40;99.90
1179;DHT22;578;48.408;10.004;2022-11-30T14:54:06;4.40;99.90
1179;DHT22;578;48.408;10.004;2022-11-30T14:56:38;4.40;99.90
1179;DHT22;578;48.408;10.004;2022-11-30T14:59:20;4.40;99.90
1179;DHT22;578;48.408;10.004;2022-11-30T15:01:55;4.40;99.90
1179;DHT22;578;48.408;10.004;2022-11-30T15:04:23;4.40;99.90
1179;DHT22;578;48.408;10.004;2022-11-30T15:06:52;4.40;99.90
1179;DHT22;578;48.408;10.004;2022-11-30T15:09:21;4.40;99.90
1179;DHT22;578;48.408;10.004;2022-11-30T15:11:50;4.50;99.90
1179;DHT22;578;48.408;10.004;2022-11-30T15:14:18;4.30;99.90
1179;DHT22;578;48.408;10.004;2022-11-30T15:16:46;4.40;99.90
1179;DHT22;578;48.408;10.004;2022-11-30T15:19:25;4.40;99.90
1179;DHT22;578;48.408;10.004;2022-11-30T15:21:53;4.40;99.90
1179;DHT22;578;48.408;10.004;2022-11-30T15:24:20;4.40;99.90
1179;DHT22;578;48.408;10.004;2022-11-30T15:26:54;4.40;99.90
1179;DHT22;578;48.408;10.004;2022-11-30T15:29:25;4.40;99.90
1179;DHT22;578;48.408;10.004;2022-11-30T15:31:54;4.40;99.90
1179;DHT22;578;48.408;10.004;2022-11-30T15:34:29;4.30;99.90
1179;DHT22;578;48.408;10.004;2022-11-30T15:36:58;4.40;99.90
1179;DHT22;578;48.408;10.004;2022-11-30T15:39:26;4.30;99.90
1179;DHT22;578;48.408;10.004;2022-11-30T15:41:54;4.30;99.90
1179;DHT22;578;48.408;10.004;2022-11-30T15:44:24;4.40;99.90
1179;DHT22;578;48.408;10.004;2022-11-30T15:46:57;4.30;99.90
1179;DHT22;578;48.408;10.004;2022-11-30T15:49:26;4.30;99.90
1179;DHT22;578;48.408;10.004;2022-11-30T15:52:01;4.30;99.90
1179;DHT22;578;48.408;10.004;2022-11-30T15:54:44;4.30;99.90
1179;DHT22;578;48.408;10.004;2022-11-30T15:57:11;4.30;99.90
1179;DHT22;578;48.408;10.004;2022-11-30T15:59:38;4.30;99.90
1179;DHT22;578;48.408;10.004;2022-11-30T16:02:20;4.30;99.90
1179;DHT22;578;48.408;10.004;2022-11-30T16:05:24;4.30;99.90
1179;DHT22;578;48.408;10.004;2022-11-30T16:07:53;4.30;99.90
1179;DHT22;578;48.408;10.004;2022-11-30T16:10:23;4.30;99.90
1179;DHT22;578;48.408;10.004;2022-11-30T16:12:51;4.30;99.90
1179;DHT22;578;48.408;10.004;2022-11-30T16:15:20;4.30;99.90
1179;DHT22;578;48.408;10.004;2022-11-30T16:17:48;4.20;99.90
1179;DHT22;578;48.408;10.004;2022-11-30T16:20:16;4.20;99.90
1179;DHT22;578;48.408;10.004;2022-11-30T16:22:47;4.20;99.90
1179;DHT22;578;48.408;10.004;2022-11-30T16:25:17;4.30;99.90
1179;DHT22;578;48.408;10.004;2022-11-30T16:27:44;4.30;99.90
1179;DHT22;578;48.408;10.004;2022-11-30T16:30:14;4.20;99.90
1179;DHT22;578;48.408;10.004;2022-11-30T16:32:41;4.20;99.90
1179;DHT22;578;48.408;10.004;2022-11-30T16:35:16;4.20;99.90
1179;DHT22;578;48.408;10.004;2022-11-30T16:37:43;4.30;99.90
1179;DHT22;578;48.408;10.004;2022-11-30T16:40:13;4.20;99.90
1179;DHT22;578;48.408;10.004;2022-11-30T16:42:40;4.20;99.90
1179;DHT22;578;48.408;10.004;2022-11-30T16:45:12;4.20;99.90
1179;DHT22;578;48.408;10.004;2022-11-30T16:47:40;4.20;99.90
1179;DHT22;578;48.408;10.004;2022-11-30T16:50:08;4.20;99.90
1179;DHT22;578;48.408;10.004;2022-11-30T16:52:35;4.10;99.90
1179;DHT22;578;48.408;10.004;2022-11-30T16:55:02;4.00;99.90
1179;DHT22;578;48.408;10.004;2022-11-30T16:57:30;4.10;99.90
1179;DHT22;578;48.408;10.004;2022-11-30T16:59:57;4.00;99.90
1179;DHT22;578;48.408;10.004;2022-11-30T17:02:24;4.00;99.90